createdAt,value
2022-10-14T00:02:01.649Z,14.32
2022-10-14T00:04:34.703Z,14.35
2022-10-14T00:07:26.582Z,14.33
2022-10-14T00:09:59.606Z,14.41
2022-10-14T00:12:32.759Z,14.34
2022-10-14T00:15:05.944Z,14.43
2022-10-14T00:17:39.157Z,14.37
2022-10-14T00:20:12.313Z,14.40
2022-10-14T00:22:46.535Z,14.41
2022-10-14T00:25:19.218Z,14.40
2022-10-14T00:27:51.998Z,14.38
2022-10-14T00:30:26.116Z,14.43
2022-10-14T00:33:02.726Z,14.42
2022-10-14T00:35:35.502Z,14.40
2022-10-14T00:38:09.695Z,14.40
2022-10-14T00:40:42.517Z,14.38
2022-10-14T00:43:15.784Z,14.41
2022-10-14T00:45:49.831Z,14.41
2022-10-14T00:48:24.527Z,14.50
2022-10-14T00:51:00.445Z,14.46
2022-10-14T00:53:35.491Z,14.44
2022-10-14T00:56:10.242Z,14.44
2022-10-14T00:58:44.616Z,14.50
2022-10-14T01:01:17.865Z,14.46
2022-10-14T01:03:52.084Z,14.51
2022-10-14T01:06:32.054Z,14.47
2022-10-14T01:09:14.060Z,14.51
2022-10-14T01:12:23.455Z,14.55
2022-10-14T01:14:59.872Z,14.55
2022-10-14T01:17:43.588Z,14.60
2022-10-14T01:21:05.280Z,14.63
2022-10-14T01:24:05.100Z,14.67
2022-10-14T01:26:58.111Z,14.68
2022-10-14T01:30:04.691Z,14.61
2022-10-14T01:32:46.834Z,14.65
2022-10-14T01:35:29.231Z,14.68
2022-10-14T01:38:06.811Z,14.68
2022-10-14T01:40:44.844Z,14.72
2022-10-14T01:43:19.336Z,14.76
2022-10-14T01:45:56.730Z,14.82
2022-10-14T01:48:33.929Z,14.85
2022-10-14T01:51:13.747Z,14.90
2022-10-14T01:53:54.793Z,14.84
2022-10-14T01:56:36.003Z,14.80
2022-10-14T01:59:16.148Z,14.86
2022-10-14T02:01:50.439Z,14.86
2022-10-14T02:04:24.693Z,14.89
2022-10-14T02:07:05.927Z,14.81
2022-10-14T02:09:50.515Z,14.80
2022-10-14T02:12:32.818Z,14.85
2022-10-14T02:15:15.093Z,14.98
2022-10-14T02:17:55.462Z,14.92
2022-10-14T02:20:32.245Z,14.95
2022-10-14T02:23:10.041Z,14.97
2022-10-14T02:25:46.826Z,14.98
2022-10-14T02:28:23.086Z,15.01
2022-10-14T02:31:00.673Z,14.95
2022-10-14T02:33:39.006Z,15.02
2022-10-14T02:36:17.486Z,15.06
2022-10-14T02:38:51.457Z,15.10
2022-10-14T02:41:27.260Z,15.14
2022-10-14T02:44:00.356Z,15.16
2022-10-14T02:46:36.887Z,15.20
2022-10-14T02:49:11.751Z,15.17
2022-10-14T02:51:44.704Z,15.19
2022-10-14T02:54:17.524Z,15.20
2022-10-14T02:56:50.532Z,15.23
2022-10-14T02:59:23.624Z,15.26
2022-10-14T03:01:56.418Z,15.23
2022-10-14T03:04:31.256Z,15.25
2022-10-14T03:07:05.833Z,15.25
2022-10-14T03:09:42.659Z,15.29
2022-10-14T03:12:16.725Z,15.30
2022-10-14T03:14:50.288Z,15.25
2022-10-14T03:17:24.480Z,15.29
2022-10-14T03:19:59.496Z,15.24
2022-10-14T03:22:32.476Z,15.26
2022-10-14T03:25:05.840Z,15.28
2022-10-14T03:27:47.999Z,15.33
2022-10-14T03:30:20.852Z,15.32
2022-10-14T03:33:04.034Z,15.28
2022-10-14T03:36:00.530Z,15.32
2022-10-14T03:38:46.217Z,15.33
2022-10-14T03:41:29.836Z,15.35
2022-10-14T03:44:03.311Z,15.35
2022-10-14T03:46:38.744Z,15.38
2022-10-14T03:49:11.747Z,15.35
2022-10-14T03:51:45.915Z,15.39
2022-10-14T03:54:25.380Z,15.39
2022-10-14T03:56:58.180Z,15.41
2022-10-14T03:59:33.685Z,15.40
2022-10-14T04:02:07.045Z,15.44
2022-10-14T04:04:39.929Z,15.46
2022-10-14T04:07:14.173Z,15.44
2022-10-14T04:09:54.246Z,15.48
2022-10-14T04:12:27.122Z,15.48
2022-10-14T04:15:12.327Z,15.50
2022-10-14T04:18:05.037Z,15.55
2022-10-14T04:20:38.486Z,15.56
2022-10-14T04:23:13.592Z,15.51
2022-10-14T04:25:48.328Z,15.53
2022-10-14T04:28:22.684Z,15.53
2022-10-14T04:31:04.739Z,15.52
2022-10-14T04:33:49.836Z,15.52
2022-10-14T04:36:28.608Z,15.50
2022-10-14T04:39:06.077Z,15.52
2022-10-14T04:41:40.658Z,15.52
2022-10-14T04:44:15.042Z,15.55
2022-10-14T04:46:53.921Z,15.55
2022-10-14T04:49:29.816Z,15.53
2022-10-14T04:52:15.502Z,15.53
2022-10-14T04:55:10.838Z,15.55
2022-10-14T04:57:48.248Z,15.53
2022-10-14T05:00:21.643Z,15.55
2022-10-14T05:03:14.739Z,15.55
2022-10-14T05:05:48.293Z,15.56
2022-10-14T05:08:21.336Z,15.56
2022-10-14T05:11:00.157Z,15.63
2022-10-14T05:13:48.147Z,15.62
2022-10-14T05:16:22.334Z,15.59
2022-10-14T05:18:55.579Z,15.60
2022-10-14T05:21:29.519Z,15.62
2022-10-14T05:24:09.221Z,15.64
2022-10-14T05:26:55.383Z,15.66
2022-10-14T05:29:28.293Z,15.67
2022-10-14T05:32:02.938Z,15.70
2022-10-14T05:34:45.949Z,15.66
2022-10-14T05:37:29.771Z,15.73
2022-10-14T05:40:02.723Z,15.76
2022-10-14T05:42:43.059Z,15.79
2022-10-14T05:45:16.346Z,15.79
2022-10-14T05:47:55.634Z,15.78
2022-10-14T05:50:28.599Z,15.74
2022-10-14T05:53:06.275Z,15.82
2022-10-14T05:55:46.389Z,15.85
2022-10-14T05:58:20.671Z,15.84
2022-10-14T06:00:54.223Z,15.88
2022-10-14T06:03:28.037Z,15.91
2022-10-14T06:06:01.031Z,15.89
2022-10-14T06:08:36.640Z,15.88
2022-10-14T06:11:09.731Z,15.89
2022-10-14T06:13:43.893Z,15.88
2022-10-14T06:16:16.786Z,15.90
2022-10-14T06:18:53.566Z,15.91
2022-10-14T06:21:27.878Z,15.91
2022-10-14T06:24:00.971Z,15.95
2022-10-14T06:29:44.169Z,16.00
2022-10-14T06:36:12.041Z,16.04
2022-10-14T06:38:45.247Z,16.06
2022-10-14T06:41:21.309Z,15.85
2022-10-14T06:44:20.369Z,16.01
2022-10-14T06:47:05.087Z,16.13
2022-10-14T06:49:59.877Z,16.10
2022-10-14T06:52:34.778Z,16.23
2022-10-14T06:55:17.027Z,16.07
2022-10-14T06:58:02.051Z,16.14
2022-10-14T07:00:45.754Z,16.11
2022-10-14T07:03:24.671Z,16.14
2022-10-14T07:06:00.221Z,16.20
2022-10-14T07:08:33.522Z,16.37
2022-10-14T07:11:06.941Z,16.38
2022-10-14T07:13:40.123Z,16.34
2022-10-14T07:16:12.989Z,16.42
2022-10-14T07:18:47.208Z,16.43
2022-10-14T07:21:19.933Z,16.40
2022-10-14T07:23:55.770Z,16.36
2022-10-14T07:26:31.066Z,16.41
2022-10-14T07:29:06.023Z,16.40
2022-10-14T07:31:42.017Z,16.38
2022-10-14T07:34:16.157Z,16.43
2022-10-14T07:36:49.589Z,16.38
2022-10-14T07:39:23.847Z,16.37
2022-10-14T07:41:58.473Z,16.45
2022-10-14T07:44:31.343Z,16.48
2022-10-14T07:47:05.403Z,16.47
2022-10-14T07:49:40.247Z,16.48
2022-10-14T07:52:16.262Z,16.51
2022-10-14T07:54:49.281Z,16.56
2022-10-14T07:57:23.430Z,16.55
2022-10-14T08:00:00.690Z,16.40
2022-10-14T08:02:33.964Z,16.49
2022-10-14T08:05:37.694Z,16.61
2022-10-14T08:08:04.135Z,16.69
2022-10-14T08:10:38.128Z,16.67
2022-10-14T08:13:14.115Z,16.66
2022-10-14T08:15:50.740Z,16.71
2022-10-14T08:18:24.628Z,16.51
2022-10-14T08:20:59.325Z,16.67
2022-10-14T08:23:33.026Z,16.76
2022-10-14T08:26:06.886Z,16.83
2022-10-14T08:28:39.638Z,16.83
2022-10-14T08:31:12.603Z,16.84
2022-10-14T08:33:49.173Z,16.85
2022-10-14T08:36:23.747Z,16.84
2022-10-14T08:38:56.971Z,16.88
2022-10-14T08:41:48.148Z,16.93
2022-10-14T08:44:24.288Z,16.91
2022-10-14T08:47:01.936Z,16.95
2022-10-14T08:49:53.253Z,17.01
2022-10-14T08:52:37.965Z,16.97
2022-10-14T08:55:24.609Z,16.97
2022-10-14T08:58:02.583Z,17.08
2022-10-14T09:00:37.350Z,17.04
2022-10-14T09:03:20.496Z,17.09
2022-10-14T09:05:58.638Z,17.10
2022-10-14T09:08:38.520Z,17.07
2022-10-14T09:11:16.071Z,17.09
2022-10-14T09:13:51.767Z,17.10
2022-10-14T09:16:32.011Z,17.18
2022-10-14T09:19:08.887Z,17.17
2022-10-14T09:21:52.735Z,17.20
2022-10-14T09:24:34.137Z,17.25
2022-10-14T09:27:12.103Z,17.19
2022-10-14T09:29:50.376Z,17.28
2022-10-14T09:32:29.052Z,17.28
2022-10-14T09:35:03.179Z,17.31
2022-10-14T09:37:42.880Z,17.33
2022-10-14T09:40:23.182Z,17.31
2022-10-14T09:43:11.476Z,17.36
2022-10-14T09:45:51.623Z,17.32
2022-10-14T09:48:33.304Z,17.47
2022-10-14T09:51:10.170Z,17.50
2022-10-14T09:53:49.189Z,17.51
2022-10-14T09:56:31.835Z,17.47
2022-10-14T09:59:06.589Z,17.51
2022-10-14T10:01:42.576Z,17.54
2022-10-14T10:04:27.554Z,17.56
2022-10-14T10:07:02.235Z,17.54
2022-10-14T10:09:35.879Z,17.56
2022-10-14T10:12:26.319Z,17.30
2022-10-14T10:15:00.772Z,17.36
2022-10-14T10:17:37.229Z,17.09
2022-10-14T10:20:29.973Z,17.56
2022-10-14T10:23:25.493Z,17.71
2022-10-14T10:26:17.924Z,17.73
2022-10-14T10:28:52.721Z,17.70
2022-10-14T10:31:48.355Z,17.67
2022-10-14T10:35:06.093Z,17.69
2022-10-14T10:37:47.775Z,17.70
2022-10-14T10:40:32.436Z,17.72
2022-10-14T10:43:24.140Z,17.68
2022-10-14T10:46:13.432Z,17.56
2022-10-14T10:49:01.599Z,17.57
2022-10-14T10:51:42.402Z,17.59
2022-10-14T10:54:31.296Z,17.64
2022-10-14T10:57:14.180Z,17.70
2022-10-14T10:59:59.492Z,17.58
2022-10-14T11:02:55.975Z,17.65
2022-10-14T11:05:55.140Z,17.82
2022-10-14T11:09:03.371Z,17.73
2022-10-14T11:12:10.374Z,17.80
2022-10-14T11:15:09.944Z,17.80
2022-10-14T11:17:52.773Z,17.83
2022-10-14T11:20:37.230Z,17.85
2022-10-14T11:23:32.437Z,18.03
2022-10-14T11:26:15.869Z,18.00
2022-10-14T11:28:56.740Z,18.08
2022-10-14T11:31:39.980Z,18.20
2022-10-14T11:34:34.792Z,18.10
2022-10-14T11:37:16.420Z,18.36
2022-10-14T11:39:52.948Z,18.40
2022-10-14T11:42:44.160Z,18.43
2022-10-14T11:45:38.582Z,18.53
2022-10-14T11:48:24.489Z,18.74
2022-10-14T11:51:06.394Z,18.96
2022-10-14T11:53:47.169Z,19.03
2022-10-14T11:56:33.225Z,19.11
2022-10-14T11:59:22.393Z,19.14
2022-10-14T12:02:02.418Z,19.13
2022-10-14T12:04:40.263Z,19.19
2022-10-14T12:07:19.985Z,19.21
2022-10-14T12:10:01.148Z,19.21
2022-10-14T12:12:37.630Z,19.26
2022-10-14T12:15:19.792Z,19.28
2022-10-14T12:17:56.146Z,19.18
2022-10-14T12:20:39.001Z,19.23
2022-10-14T12:23:30.621Z,19.19
2022-10-14T12:26:11.119Z,19.24
2022-10-14T12:28:44.347Z,19.24
2022-10-14T12:31:36.610Z,19.25
2022-10-14T12:34:29.064Z,19.28
2022-10-14T12:37:02.432Z,19.25
2022-10-14T12:39:43.828Z,19.24
2022-10-14T12:42:17.546Z,19.21
2022-10-14T12:44:56.122Z,19.17
2022-10-14T12:47:33.191Z,19.17
2022-10-14T12:50:26.510Z,19.19
2022-10-14T12:53:05.649Z,19.25
2022-10-14T12:55:51.728Z,19.30
2022-10-14T12:58:31.318Z,19.29
2022-10-14T13:01:17.990Z,19.25
2022-10-14T13:06:43.171Z,19.33
2022-10-14T13:09:38.046Z,19.43
2022-10-14T13:12:52.493Z,19.52
2022-10-14T13:15:53.373Z,19.58
2022-10-14T13:19:05.560Z,19.59
2022-10-14T13:22:01.460Z,19.68
2022-10-14T13:24:43.620Z,19.67
2022-10-14T13:27:32.959Z,19.73
2022-10-14T13:30:17.274Z,19.75
2022-10-14T13:33:00.707Z,19.71
2022-10-14T13:35:43.764Z,19.72
2022-10-14T13:38:18.955Z,19.75
2022-10-14T13:40:56.011Z,19.78
2022-10-14T13:43:30.537Z,19.80
2022-10-14T13:46:11.000Z,19.79
2022-10-14T13:48:49.504Z,19.73
2022-10-14T13:51:36.693Z,19.66
2022-10-14T13:54:16.550Z,19.69
2022-10-14T14:02:59.783Z,19.68
2022-10-14T14:05:38.767Z,19.63
2022-10-14T14:08:42.667Z,19.66
2022-10-14T14:11:21.756Z,19.63
2022-10-14T14:14:01.805Z,19.62
2022-10-14T14:16:41.113Z,19.57
2022-10-14T14:19:25.577Z,19.63
2022-10-14T14:22:19.715Z,19.61
2022-10-14T14:24:58.141Z,19.69
2022-10-14T14:27:34.922Z,19.65
2022-10-14T14:30:29.496Z,19.63
2022-10-14T14:33:15.484Z,19.52
2022-10-14T14:36:00.147Z,19.49
2022-10-14T14:38:38.712Z,19.49
2022-10-14T14:41:25.636Z,19.47
2022-10-14T14:44:24.471Z,19.34
2022-10-14T14:46:59.498Z,19.38
2022-10-14T14:49:36.281Z,19.30
2022-10-14T14:52:13.837Z,19.36
2022-10-14T14:54:49.039Z,19.33
2022-10-14T14:57:25.644Z,19.34
2022-10-14T15:00:03.821Z,19.25
2022-10-14T15:02:36.900Z,19.28
2022-10-14T15:05:11.700Z,19.27
2022-10-14T15:07:45.029Z,19.29
2022-10-14T15:10:25.937Z,19.20
2022-10-14T15:13:02.625Z,19.19
2022-10-14T15:15:39.654Z,19.14
2022-10-14T15:18:17.195Z,19.09
2022-10-14T15:20:50.264Z,19.08
2022-10-14T15:23:43.804Z,19.02
2022-10-14T15:26:31.459Z,19.00
2022-10-14T15:29:14.678Z,18.90
2022-10-14T15:31:48.057Z,18.89
2022-10-14T15:34:24.314Z,18.82
2022-10-14T15:36:57.813Z,18.77
2022-10-14T15:39:32.187Z,18.80
2022-10-14T15:42:12.915Z,18.71
2022-10-14T15:44:45.608Z,18.68
2022-10-14T15:47:20.832Z,18.70
2022-10-14T15:49:53.750Z,18.65
2022-10-14T15:52:27.130Z,18.67
2022-10-14T15:55:00.193Z,18.66
2022-10-14T15:57:36.944Z,18.70
2022-10-14T16:00:12.925Z,18.65
2022-10-14T16:02:47.296Z,18.60
2022-10-14T16:05:20.943Z,18.56
2022-10-14T16:07:53.853Z,18.60
2022-10-14T16:10:29.317Z,18.57
2022-10-14T16:13:06.729Z,18.47
2022-10-14T16:15:48.273Z,18.50
2022-10-14T16:18:24.648Z,18.47
2022-10-14T16:21:00.986Z,18.46
2022-10-14T16:26:24.927Z,18.41
2022-10-14T16:29:02.579Z,18.41
2022-10-14T16:31:35.829Z,18.25
2022-10-14T16:34:11.246Z,18.19
2022-10-14T16:36:48.971Z,18.30
2022-10-14T16:39:24.512Z,18.18
2022-10-14T16:44:47.448Z,18.28
2022-10-14T16:47:26.185Z,18.18
2022-10-14T16:50:27.820Z,18.16
2022-10-14T16:53:20.160Z,18.16
2022-10-14T16:56:03.935Z,18.15
2022-10-14T17:01:42.498Z,18.13
2022-10-14T17:04:27.357Z,18.15
2022-10-14T17:07:13.057Z,18.10
2022-10-14T17:09:54.407Z,18.08
2022-10-14T17:12:41.991Z,18.12
2022-10-14T17:15:20.846Z,18.06
2022-10-14T17:18:12.486Z,18.06
2022-10-14T17:20:53.842Z,18.04
2022-10-14T17:23:36.062Z,18.04
2022-10-14T17:26:15.251Z,18.00
2022-10-14T17:29:06.527Z,17.96
2022-10-14T17:31:52.713Z,17.97
2022-10-14T17:34:29.808Z,17.95
2022-10-14T17:39:55.800Z,17.91
2022-10-14T17:42:56.307Z,17.88
2022-10-14T17:45:48.713Z,17.90
2022-10-14T17:48:31.125Z,17.82
2022-10-14T17:51:14.414Z,17.80
2022-10-14T17:54:01.832Z,17.78
2022-10-14T17:56:50.149Z,17.80
2022-10-14T17:59:26.394Z,17.79
2022-10-14T18:02:14.760Z,17.77
2022-10-14T18:04:51.801Z,17.70
2022-10-14T18:07:36.244Z,17.74
2022-10-14T18:10:17.242Z,17.73
2022-10-14T18:12:51.882Z,17.70
2022-10-14T18:15:31.030Z,17.66
2022-10-14T18:18:04.964Z,17.72
2022-10-14T18:20:41.159Z,17.68
2022-10-14T18:23:19.497Z,17.61
2022-10-14T18:29:05.385Z,17.59
2022-10-14T18:31:43.031Z,17.56
2022-10-14T18:34:22.448Z,17.50
2022-10-14T18:36:58.545Z,17.49
2022-10-14T18:39:36.075Z,17.52
2022-10-14T18:42:22.446Z,17.47
2022-10-14T18:45:02.200Z,17.49
2022-10-14T18:48:19.191Z,17.47
2022-10-14T18:51:32.098Z,17.43
2022-10-14T18:54:12.005Z,17.44
2022-10-14T18:56:53.557Z,17.47
2022-10-14T18:59:55.842Z,17.45
2022-10-14T19:02:36.435Z,17.45
2022-10-14T19:05:18.131Z,17.43
2022-10-14T19:08:01.039Z,17.38
2022-10-14T19:10:35.648Z,17.37
2022-10-14T19:13:12.176Z,17.33
2022-10-14T19:16:00.740Z,17.33
2022-10-14T19:18:34.077Z,17.28
2022-10-14T19:21:10.076Z,17.28
2022-10-14T19:23:45.106Z,17.29
2022-10-14T19:26:26.761Z,17.23
2022-10-14T19:29:11.480Z,17.21
2022-10-14T19:31:47.001Z,17.21
2022-10-14T19:35:05.737Z,17.17
2022-10-14T19:37:41.753Z,17.18
2022-10-14T19:40:23.831Z,17.15
2022-10-14T19:43:06.438Z,17.13
2022-10-14T19:45:45.745Z,17.10
2022-10-14T19:48:25.151Z,17.07
2022-10-14T19:51:07.264Z,17.06
2022-10-14T19:53:43.533Z,17.07
2022-10-14T19:56:26.088Z,17.04
2022-10-14T19:59:03.331Z,17.07
2022-10-14T20:01:44.144Z,17.06
2022-10-14T20:04:23.936Z,17.02
2022-10-14T20:07:00.521Z,17.08
2022-10-14T20:09:45.120Z,17.00
2022-10-14T20:12:22.161Z,17.03
2022-10-14T20:14:59.751Z,17.03
2022-10-14T20:17:43.893Z,16.90
2022-10-14T20:20:20.175Z,16.87
2022-10-14T20:22:56.708Z,17.01
2022-10-14T20:25:30.101Z,16.90
2022-10-14T20:28:05.870Z,16.91
2022-10-14T20:30:42.554Z,16.88
2022-10-14T20:33:19.413Z,16.99
2022-10-14T20:36:01.107Z,16.95
2022-10-14T20:38:45.296Z,16.87
2022-10-14T20:41:24.481Z,16.74
2022-10-14T20:43:58.680Z,16.77
2022-10-14T20:46:35.994Z,16.70
2022-10-14T20:49:12.600Z,16.77
2022-10-14T20:51:45.852Z,16.69
2022-10-14T20:54:22.669Z,16.63
2022-10-14T20:57:03.869Z,16.77
2022-10-14T20:59:44.036Z,16.67
2022-10-14T21:02:23.841Z,16.68
2022-10-14T21:05:01.702Z,16.69
2022-10-14T21:07:38.078Z,16.56
2022-10-14T21:10:13.880Z,16.57
2022-10-14T21:12:48.875Z,16.56
2022-10-14T21:15:27.004Z,16.58
2022-10-14T21:18:00.442Z,16.62
2022-10-14T21:20:37.071Z,16.58
2022-10-14T21:23:10.237Z,16.63
2022-10-14T21:25:46.395Z,16.65
2022-10-14T21:28:22.243Z,16.62
2022-10-14T21:31:04.474Z,16.66
2022-10-14T21:33:38.172Z,16.61
2022-10-14T21:36:18.130Z,16.57
2022-10-14T21:38:57.008Z,16.65
2022-10-14T21:41:30.484Z,16.64
2022-10-14T21:44:03.749Z,16.68
2022-10-14T21:46:36.929Z,16.64
2022-10-14T21:49:12.235Z,16.65
2022-10-14T21:51:57.666Z,16.62
2022-10-14T21:54:32.517Z,16.67
2022-10-14T21:57:14.574Z,16.62
2022-10-14T21:59:58.210Z,16.59
2022-10-14T22:02:33.830Z,16.62
2022-10-14T22:05:10.025Z,16.56
2022-10-14T22:07:44.592Z,16.58
2022-10-14T22:10:41.103Z,16.54
2022-10-14T22:13:37.928Z,16.59
2022-10-14T22:16:11.452Z,16.57
2022-10-14T22:18:46.781Z,16.47
2022-10-14T22:21:22.643Z,16.51
2022-10-14T22:23:58.482Z,16.49
2022-10-14T22:26:32.778Z,16.52
2022-10-14T22:29:12.337Z,16.50
2022-10-14T22:31:46.438Z,16.50
2022-10-14T22:34:20.884Z,16.55
2022-10-14T22:36:53.871Z,16.52
2022-10-14T22:39:28.316Z,16.54
2022-10-14T22:42:02.460Z,16.48
2022-10-14T22:44:35.528Z,16.51
2022-10-14T22:47:11.276Z,16.49
2022-10-14T22:49:44.247Z,16.49
2022-10-14T22:52:19.528Z,16.49
2022-10-14T22:54:53.937Z,16.47
2022-10-14T22:57:28.598Z,16.51
2022-10-14T23:00:01.601Z,16.45
2022-10-14T23:02:34.656Z,16.42
2022-10-14T23:05:08.954Z,16.42
2022-10-14T23:07:42.006Z,16.40
2022-10-14T23:10:16.968Z,16.36
2022-10-14T23:12:49.847Z,16.37
2022-10-14T23:15:22.770Z,16.41
2022-10-14T23:17:55.821Z,16.37
2022-10-14T23:20:28.800Z,16.37
2022-10-14T23:23:03.007Z,16.33
2022-10-14T23:25:41.186Z,16.32
2022-10-14T23:28:15.907Z,16.33
2022-10-14T23:30:49.170Z,16.21
2022-10-14T23:33:24.404Z,16.22
2022-10-14T23:36:03.865Z,16.29
2022-10-14T23:38:37.411Z,16.21
2022-10-14T23:41:13.662Z,16.20
2022-10-14T23:43:52.774Z,16.23
2022-10-14T23:46:34.681Z,16.18
2022-10-14T23:49:24.975Z,16.21
2022-10-14T23:51:59.431Z,16.23
2022-10-14T23:54:34.863Z,16.27
2022-10-14T23:57:11.987Z,16.24
2022-10-14T23:59:44.878Z,16.21
